Terminal Aerodrome Forecast
Issued by NWS

Home | Current Version | Previous Version | Text Only | Print | Product List | Glossary On
Versions: 1 2 3 4 5 6 7 8 9 10 11 12 13 14
000
FTUS46 KLOX 201100
TAFWJF
TAF
KWJF 201125Z 2012/2112 29008KT P6SM SKC
     FM201500 VRB03KT P6SM SKC
     FM202000 23014KT P6SM SCT080
     FM202200 24018KT P6SM VCTS SCT080CB BKN120
     FM210300 24014KT P6SM SCT100
     FM210700 25010KT P6SM FEW120=

USA.gov is the U.S. government's official web portal to all federal, state and local government web resources and services.